Time;durP1;ratioP1;P1;durP2;ratioP2;P2;SDS_P1;SDS_P2;PMS_P1;PMS_P2;Temp;Humidity;BMP_temperature;BMP_pressure;BME280_temperature;BME280_humidity;BME280_pressure;Samples;Min_cycle;Max_cycle;Signal;HPM_P1;HPM_P2
2022/07/27 00:02:37;;;;;;;1.85;1.20;;;24.00;58.10;;;;;;10059108;28;20254;-61
2022/07/27 00:07:28;;;;;;;1.65;1.38;;;23.90;58.40;;;;;;10058208;28;20041;-61
2022/07/27 00:12:19;;;;;;;3.85;1.20;;;24.10;58.40;;;;;;10058448;28;20020;-62
2022/07/27 00:17:10;;;;;;;2.70;1.20;;;24.00;58.60;;;;;;10058615;28;20037;-61
2022/07/27 00:22:01;;;;;;;2.58;0.98;;;24.00;58.60;;;;;;10060297;28;20013;-61
2022/07/27 00:26:52;;;;;;;2.92;1.10;;;23.90;58.90;;;;;;10056577;28;20404;-60
2022/07/27 00:31:42;;;;;;;2.92;1.33;;;24.10;58.80;;;;;;10062868;28;20049;-61
2022/07/27 00:36:33;;;;;;;1.67;1.08;;;24.00;59.30;;;;;;10043836;28;20045;-61
2022/07/27 00:41:23;;;;;;;1.48;1.10;;;24.00;59.00;;;;;;10058203;28;20030;-62
2022/07/27 00:46:14;;;;;;;2.35;1.10;;;23.80;59.40;;;;;;10057166;28;20038;-63
2022/07/27 00:51:06;;;;;;;3.03;1.20;;;23.70;59.70;;;;;;10056532;28;20025;-63
2022/07/27 00:55:57;;;;;;;2.05;1.15;;;23.90;59.40;;;;;;10041044;28;20027;-61
2022/07/27 01:00:48;;;;;;;4.32;1.45;;;23.70;60.00;;;;;;10050156;28;20116;-61
2022/07/27 01:05:39;;;;;;;3.50;1.40;;;23.60;60.10;;;;;;10050769;28;20101;-61
2022/07/27 01:10:30;;;;;;;2.03;1.23;;;23.50;60.30;;;;;;10056038;28;20017;-62
2022/07/27 01:15:21;;;;;;;1.58;1.20;;;23.40;60.30;;;;;;10055311;28;20025;-61
2022/07/27 01:20:11;;;;;;;2.33;1.17;;;23.40;60.70;;;;;;10049868;28;20017;-61
2022/07/27 01:25:02;;;;;;;3.67;1.70;;;23.40;60.70;;;;;;10053885;28;20059;-61
2022/07/27 01:29:53;;;;;;;2.75;1.02;;;23.40;60.70;;;;;;10053393;28;20500;-61
2022/07/27 01:34:44;;;;;;;2.25;1.30;;;23.50;60.60;;;;;;10054759;28;20045;-61
2022/07/27 01:39:34;;;;;;;1.63;1.23;;;23.30;60.80;;;;;;10054607;28;20044;-61
2022/07/27 01:44:25;;;;;;;1.60;1.10;;;23.20;61.10;;;;;;10054415;28;20036;-61
2022/07/27 01:49:16;;;;;;;2.58;1.25;;;23.10;61.50;;;;;;10053773;28;20034;-61
2022/07/27 01:54:07;;;;;;;3.08;1.20;;;22.90;61.70;;;;;;10054152;28;20394;-61
2022/07/27 01:58:58;;;;;;;7.80;2.00;;;22.90;62.10;;;;;;10054386;28;20025;-62
2022/07/27 02:03:49;;;;;;;5.68;1.38;;;22.80;62.20;;;;;;10054052;28;20047;-60
2022/07/27 02:08:40;;;;;;;2.90;1.15;;;22.90;62.30;;;;;;10053783;28;20481;-62
2022/07/27 02:13:30;;;;;;;2.42;1.52;;;22.90;62.20;;;;;;10053565;28;20014;-63
2022/07/27 02:18:22;;;;;;;2.28;1.20;;;22.90;62.50;;;;;;10061532;28;20112;-62
2022/07/27 02:23:13;;;;;;;1.33;1.15;;;22.70;62.70;;;;;;10054533;28;20491;-61
2022/07/27 02:28:04;;;;;;;2.58;1.30;;;22.40;63.40;;;;;;10053693;28;20037;-61
2022/07/27 02:32:54;;;;;;;3.17;1.50;;;22.40;63.50;;;;;;10044774;28;20025;-61
2022/07/27 02:37:45;;;;;;;3.22;1.20;;;22.60;63.10;;;;;;10053398;28;20057;-61
2022/07/27 02:42:36;;;;;;;2.22;1.25;;;22.70;63.20;;;;;;10052627;28;20026;-61
2022/07/27 02:47:26;;;;;;;2.60;1.02;;;22.70;63.30;;;;;;10051350;28;20029;-61
2022/07/27 02:52:17;;;;;;;4.05;1.40;;;22.60;63.40;;;;;;10050152;28;20419;-61
2022/07/27 02:57:09;;;;;;;1.38;1.15;;;22.70;63.60;;;;;;10053198;28;20054;-61
2022/07/27 03:01:59;;;;;;;2.88;1.52;;;22.90;63.30;;;;;;10053213;28;20017;-62
2022/07/27 03:06:50;;;;;;;2.65;1.50;;;22.60;63.70;;;;;;10044781;28;20555;-61
2022/07/27 03:11:41;;;;;;;1.70;1.60;;;22.50;64.10;;;;;;10058571;28;20021;-61
2022/07/27 03:16:31;;;;;;;2.40;1.42;;;22.20;64.60;;;;;;10029269;28;20094;-61
2022/07/27 03:21:22;;;;;;;3.45;1.88;;;22.40;64.50;;;;;;10046966;28;20035;-61
2022/07/27 03:26:13;;;;;;;4.00;1.50;;;22.60;64.30;;;;;;10058291;28;20507;-62
2022/07/27 03:31:04;;;;;;;2.60;1.65;;;22.50;65.10;;;;;;10061111;28;20034;-62
2022/07/27 03:35:54;;;;;;;1.40;1.30;;;22.30;64.80;;;;;;10059464;28;20559;-61
2022/07/27 03:40:45;;;;;;;5.10;1.70;;;22.10;65.50;;;;;;10050274;28;20527;-61
2022/07/27 03:45:36;;;;;;;3.95;1.20;;;22.30;65.10;;;;;;10067336;28;20147;-61
2022/07/27 03:50:27;;;;;;;2.22;1.40;;;22.20;65.50;;;;;;10060160;28;20079;-61
2022/07/27 03:55:19;;;;;;;4.25;1.80;;;22.20;65.30;;;;;;10061103;28;20030;-62
2022/07/27 04:00:11;;;;;;;3.70;1.75;;;22.10;65.40;;;;;;10061086;28;20026;-63
2022/07/27 04:05:02;;;;;;;2.00;1.63;;;22.20;65.70;;;;;;10058939;28;20041;-62
2022/07/27 04:09:53;;;;;;;2.47;1.55;;;22.00;66.00;;;;;;10055465;28;20030;-63
2022/07/27 04:14:43;;;;;;;2.97;1.77;;;22.10;66.20;;;;;;10032378;28;20022;-62
2022/07/27 04:19:34;;;;;;;3.88;1.45;;;22.20;66.10;;;;;;10044137;28;20030;-63
2022/07/27 04:24:25;;;;;;;3.45;1.60;;;22.20;66.30;;;;;;10058298;28;20505;-62
2022/07/27 04:29:15;;;;;;;2.05;1.42;;;22.20;66.50;;;;;;10058503;28;20400;-62
2022/07/27 04:34:06;;;;;;;1.75;1.52;;;22.20;66.80;;;;;;10033388;28;20038;-61
2022/07/27 04:38:57;;;;;;;4.50;2.00;;;22.10;66.80;;;;;;10035078;28;20045;-61
2022/07/27 04:43:47;;;;;;;2.17;1.65;;;22.20;66.80;;;;;;10056490;28;20477;-62
2022/07/27 04:48:38;;;;;;;1.90;1.70;;;22.20;67.20;;;;;;10057974;28;20451;-64
2022/07/27 04:53:29;;;;;;;1.88;1.70;;;22.10;67.40;;;;;;10054055;28;20401;-62
2022/07/27 04:58:19;;;;;;;4.78;1.63;;;22.00;67.50;;;;;;10071366;28;20372;-62
2022/07/27 05:03:10;;;;;;;3.60;2.03;;;21.90;68.10;;;;;;10056742;28;20018;-62
2022/07/27 05:08:02;;;;;;;3.13;2.00;;;21.80;68.20;;;;;;10055596;28;20673;-62
2022/07/27 05:12:52;;;;;;;5.20;1.90;;;22.00;68.50;;;;;;10063718;28;20021;-62
2022/07/27 05:17:43;;;;;;;3.25;1.73;;;22.00;68.20;;;;;;10031472;28;20033;-62
2022/07/27 05:22:34;;;;;;;2.72;1.67;;;22.10;68.50;;;;;;10053649;28;20489;-62
2022/07/27 05:27:25;;;;;;;2.85;1.63;;;22.30;68.70;;;;;;10057077;28;20029;-62
2022/07/27 05:32:16;;;;;;;2.85;1.90;;;22.40;68.30;;;;;;10055616;28;20025;-61
2022/07/27 05:37:07;;;;;;;7.80;3.30;;;22.60;68.20;;;;;;10060708;28;20045;-63
2022/07/27 05:41:57;;;;;;;6.53;3.80;;;22.50;68.30;;;;;;10055794;28;20113;-62
2022/07/27 05:46:48;;;;;;;3.10;1.70;;;22.50;68.50;;;;;;10053498;28;20112;-61
2022/07/27 05:51:39;;;;;;;3.58;2.42;;;22.40;68.70;;;;;;10054967;28;20075;-62
2022/07/27 05:56:29;;;;;;;4.15;1.88;;;22.30;68.90;;;;;;10053992;28;20459;-62
2022/07/27 06:01:20;;;;;;;1.50;1.35;;;22.60;68.70;;;;;;10054072;28;20092;-61
2022/07/27 06:11:31;;;;;;;5.10;1.83;;;22.70;69.20;;;;;;10044521;28;20033;-60
2022/07/27 06:16:22;;;;;;;2.10;1.50;;;23.20;68.30;;;;;;10053569;28;20029;-62
2022/07/27 06:21:13;;;;;;;4.68;1.67;;;23.30;68.30;;;;;;10049808;28;20041;-62
2022/07/27 06:26:05;;;;;;;4.43;2.30;;;23.40;68.20;;;;;;10051916;28;20057;-63
2022/07/27 06:30:55;;;;;;;2.85;1.55;;;23.30;68.10;;;;;;10040862;28;20041;-63
2022/07/27 06:35:46;;;;;;;5.38;1.55;;;23.60;67.60;;;;;;10042597;28;20052;-60
2022/07/27 06:40:37;;;;;;;6.05;1.98;;;23.30;68.10;;;;;;10052685;28;20033;-61
2022/07/27 06:45:27;;;;;;;2.65;1.50;;;23.20;68.10;;;;;;10049610;28;20047;-59
2022/07/27 06:50:21;;;;;;;4.00;2.15;;;23.10;68.50;;;;;;10044852;28;20018;-62
2022/07/27 06:55:12;;;;;;;1.42;1.30;;;23.10;68.50;;;;;;10044958;28;20032;-60
2022/07/27 07:00:05;;;;;;;7.32;2.05;;;22.70;69.30;;;;;;10049298;28;20446;-61
2022/07/27 07:04:56;;;;;;;2.55;1.23;;;22.60;69.70;;;;;;10039067;28;20053;-59
2022/07/27 07:09:46;;;;;;;1.83;1.23;;;22.40;70.00;;;;;;10024861;28;20497;-62
2022/07/27 07:14:37;;;;;;;4.00;2.05;;;22.30;70.50;;;;;;10038312;28;20084;-60
2022/07/27 07:19:28;;;;;;;5.10;1.60;;;22.40;70.40;;;;;;10046421;28;20100;-59
2022/07/27 07:24:18;;;;;;;5.57;1.85;;;22.70;70.00;;;;;;10038649;28;20044;-61
2022/07/27 07:29:09;;;;;;;1.77;1.58;;;22.70;70.20;;;;;;10032726;28;20459;-60
2022/07/27 07:34:00;;;;;;;2.53;1.50;;;22.40;70.80;;;;;;10033441;28;20524;-58
2022/07/27 07:38:51;;;;;;;2.25;1.25;;;22.60;70.60;;;;;;10042921;28;20057;-59
2022/07/27 07:43:41;;;;;;;4.22;1.88;;;22.80;70.10;;;;;;10050514;28;20036;-59
2022/07/27 07:48:33;;;;;;;1.88;1.25;;;22.70;70.60;;;;;;10051997;28;20041;-60
2022/07/27 07:53:24;;;;;;;2.00;1.20;;;22.90;70.30;;;;;;10047736;28;20014;-59
2022/07/27 07:58:14;;;;;;;1.65;1.15;;;22.90;70.40;;;;;;10037750;28;20511;-59
2022/07/27 08:03:05;;;;;;;2.72;1.52;;;22.80;70.80;;;;;;10037568;28;20052;-59
2022/07/27 08:07:55;;;;;;;3.40;1.85;;;23.00;70.60;;;;;;10048934;28;20032;-64
2022/07/27 08:12:50;;;;;;;1.42;1.33;;;23.20;70.30;;;;;;10050560;28;20031;-61
2022/07/27 08:17:42;;;;;;;3.40;2.20;;;23.10;70.50;;;;;;10050816;28;20022;-63
2022/07/27 08:22:33;;;;;;;2.58;1.70;;;23.30;70.20;;;;;;10052293;28;20500;-61
2022/07/27 08:27:23;;;;;;;3.17;1.35;;;23.30;70.00;;;;;;10043043;28;20033;-58
2022/07/27 08:32:14;;;;;;;3.92;1.80;;;23.40;69.80;;;;;;10038473;28;20036;-58
2022/07/27 08:37:05;;;;;;;1.35;1.23;;;23.50;69.70;;;;;;10044099;28;20068;-57
2022/07/27 08:41:59;;;;;;;2.70;1.52;;;23.60;69.70;;;;;;10052336;28;20013;-55
2022/07/27 08:46:50;;;;;;;3.25;1.60;;;23.70;69.20;;;;;;10052295;28;20044;-56
2022/07/27 08:51:42;;;;;;;2.88;1.80;;;23.90;69.30;;;;;;10049568;28;20563;-56
2022/07/27 08:56:33;;;;;;;1.70;1.20;;;24.30;68.90;;;;;;10053557;28;20095;-59
2022/07/27 09:01:24;;;;;;;2.33;2.05;;;24.50;68.60;;;;;;10056653;28;20199;-63
2022/07/27 09:06:41;;;;;;;2.00;1.60;;;24.20;68.70;;;;;;10056417;28;20026;-51
2022/07/27 09:11:32;;;;;;;3.42;1.92;;;24.70;68.30;;;;;;10055715;28;20171;-58
2022/07/27 09:16:29;;;;;;;3.15;1.70;;;25.10;67.70;;;;;;10055271;28;20183;-54
2022/07/27 09:21:20;;;;;;;6.95;4.28;;;25.00;68.00;;;;;;10055056;28;20041;-55
2022/07/27 09:26:24;;;;;;;5.88;2.00;;;25.20;67.40;;;;;;10052222;28;20749;-60
2022/07/27 09:31:15;;;;;;;3.47;2.07;;;25.50;66.90;;;;;;10041225;28;20041;-58
2022/07/27 09:36:06;;;;;;;3.85;2.08;;;25.60;66.90;;;;;;10030323;28;20054;-56
2022/07/27 09:41:02;;;;;;;2.63;1.58;;;25.80;66.40;;;;;;10055123;28;20377;-60
2022/07/27 09:45:53;;;;;;;3.30;1.90;;;25.60;66.30;;;;;;10053071;28;20038;-58
2022/07/27 09:50:59;;;;;;;5.18;1.90;;;25.40;66.40;;;;;;10053622;28;20470;-60
2022/07/27 09:56:01;;;;;;;5.07;1.73;;;25.40;66.10;;;;;;10049520;28;20041;-59
2022/07/27 10:00:58;;;;;;;2.42;1.80;;;25.40;66.20;;;;;;10047657;28;20080;-56
2022/07/27 10:05:49;;;;;;;3.63;2.15;;;25.50;65.90;;;;;;10041999;28;20642;-60
2022/07/27 10:10:39;;;;;;;4.07;2.25;;;25.80;65.60;;;;;;10027687;28;20111;-59
2022/07/27 10:15:30;;;;;;;2.33;1.67;;;25.60;65.60;;;;;;10037420;28;20033;-59
2022/07/27 10:20:21;;;;;;;2.55;1.75;;;25.40;65.90;;;;;;10045923;28;20112;-58
2022/07/27 10:25:11;;;;;;;3.70;1.50;;;25.20;66.10;;;;;;10050821;28;20125;-58
2022/07/27 10:30:04;;;;;;;2.97;1.98;;;25.40;65.80;;;;;;10054018;28;20510;-57
2022/07/27 10:34:56;;;;;;;1.65;1.23;;;25.20;66.10;;;;;;10052891;28;20065;-57
2022/07/27 10:40:32;;;;;;;3.42;1.80;;;25.00;66.10;;;;;;10053248;28;20531;-59
2022/07/27 10:45:08;;;;;;;2.95;1.92;;;24.90;66.30;;;;;;10053113;28;20033;-59
2022/07/27 10:50:14;;;;;;;2.63;1.52;;;24.60;66.30;;;;;;10052442;28;20146;-59
2022/07/27 10:55:05;;;;;;;2.83;1.60;;;24.70;66.20;;;;;;10051401;28;20109;-58
2022/07/27 10:59:56;;;;;;;2.08;1.48;;;25.40;65.30;;;;;;10052475;28;20120;-58
2022/07/27 11:04:49;;;;;;;2.17;1.55;;;25.60;64.80;;;;;;10052570;28;20040;-58
2022/07/27 11:09:41;;;;;;;4.75;1.60;;;25.60;65.00;;;;;;10053316;28;20025;-58
2022/07/27 11:14:53;;;;;;;1.48;1.38;;;25.60;65.00;;;;;;10056966;28;20458;-60
2022/07/27 11:19:49;;;;;;;2.17;1.40;;;25.90;64.50;;;;;;10052685;28;20453;-59
2022/07/27 11:24:40;;;;;;;1.85;1.35;;;25.90;64.30;;;;;;10038301;28;20079;-61
2022/07/27 11:29:35;;;;;;;1.90;1.30;;;26.20;63.70;;;;;;10050252;28;20038;-60
2022/07/27 11:34:31;;;;;;;3.05;1.50;;;26.30;62.90;;;;;;10053651;28;20514;-61
2022/07/27 11:39:24;;;;;;;2.50;1.58;;;26.80;62.40;;;;;;10053767;28;20034;-61
2022/07/27 11:44:18;;;;;;;3.75;1.40;;;27.30;61.60;;;;;;10050880;28;20052;-59
2022/07/27 11:49:12;;;;;;;3.17;1.60;;;27.20;60.60;;;;;;10051034;28;20033;-59
2022/07/27 11:54:08;;;;;;;3.50;1.45;;;27.60;59.80;;;;;;10058423;28;20037;-60
2022/07/27 11:59:09;;;;;;;1.88;1.20;;;27.50;59.80;;;;;;10056059;28;20040;-59
2022/07/27 12:04:13;;;;;;;4.20;1.30;;;27.30;59.60;;;;;;10053352;28;20037;-58
2022/07/27 12:09:05;;;;;;;3.83;1.38;;;27.20;59.70;;;;;;10056073;28;20060;-57
2022/07/27 12:13:57;;;;;;;3.47;1.67;;;27.40;59.70;;;;;;10057905;28;20388;-60
2022/07/27 12:18:48;;;;;;;2.90;1.98;;;27.80;59.30;;;;;;10054882;28;20017;-59
2022/07/27 12:23:49;;;;;;;1.55;1.20;;;27.70;58.70;;;;;;10051792;28;20512;-59
2022/07/27 12:28:40;;;;;;;5.80;1.50;;;27.40;59.00;;;;;;10040283;28;20112;-58
2022/07/27 12:33:37;;;;;;;2.85;1.13;;;27.90;58.60;;;;;;10053407;28;20104;-61
2022/07/27 12:38:47;;;;;;;1.88;1.27;;;28.60;57.50;;;;;;10054658;28;20110;-58
2022/07/27 12:43:38;;;;;;;2.63;1.20;;;29.50;57.10;;;;;;10038782;28;20142;-59
2022/07/27 12:48:37;;;;;;;3.17;1.08;;;29.80;57.30;;;;;;10056948;28;20569;-58
2022/07/27 12:53:29;;;;;;;3.17;2.10;;;29.80;56.30;;;;;;10056223;28;20029;-60
2022/07/27 12:58:19;;;;;;;1.42;1.27;;;29.20;56.00;;;;;;10056252;28;20075;-59
2022/07/27 13:03:10;;;;;;;2.17;1.10;;;28.50;55.70;;;;;;10056252;28;20041;-58
2022/07/27 13:08:03;;;;;;;3.25;1.15;;;28.40;55.40;;;;;;10053258;28;20038;-59
2022/07/27 13:12:53;;;;;;;;;;;29.90;55.10;;;;;;10051696;28;20414;-57
2022/07/27 13:17:45;;;;;;;2.38;1.00;;;31.40;54.10;;;;;;10050312;28;19912;-59
2022/07/27 13:22:37;;;;;;;2.38;1.55;;;30.70;54.60;;;;;;10054008;28;20136;-58
2022/07/27 13:27:28;;;;;;;;;;;31.90;53.00;;;;;;10052968;28;20084;-57
2022/07/27 13:32:19;;;;;;;3.28;1.25;;;33.00;51.80;;;;;;10038854;28;19920;-60
2022/07/27 13:37:09;;;;;;;2.97;1.20;;;33.80;51.60;;;;;;10043363;28;20045;-59
2022/07/27 13:42:00;;;;;;;4.13;1.52;;;34.30;50.70;;;;;;10043676;28;20430;-59
2022/07/27 13:46:51;;;;;;;;;;;34.70;49.70;;;;;;10054467;28;20096;-65
2022/07/27 13:51:43;;;;;;;1.67;1.10;;;35.00;48.40;;;;;;10049718;28;19909;-65
2022/07/27 13:56:33;;;;;;;1.27;1.17;;;34.60;48.60;;;;;;10046995;28;20014;-62
2022/07/27 14:01:25;;;;;;;1.83;1.10;;;35.20;47.70;;;;;;10047653;28;20034;-65
2022/07/27 14:06:17;;;;;;;3.50;1.33;;;36.20;46.80;;;;;;10049120;28;20037;-60
2022/07/27 14:11:08;;;;;;;1.73;1.00;;;35.80;46.10;;;;;;10041324;28;20087;-63
2022/07/27 14:16:00;;;;;;;1.80;1.17;;;36.50;45.40;;;;;;10054507;28;20432;-62
2022/07/27 14:20:51;;;;;;;2.15;0.98;;;36.60;44.90;;;;;;10052228;28;20079;-64
2022/07/27 14:25:41;;;;;;;1.85;1.17;;;37.00;44.20;;;;;;10044226;28;20045;-62
2022/07/27 14:30:32;;;;;;;3.42;1.50;;;36.70;44.00;;;;;;10046742;28;20264;-64
2022/07/27 14:35:23;;;;;;;3.50;1.65;;;37.10;43.60;;;;;;10053988;28;20037;-65
2022/07/27 14:40:14;;;;;;;2.83;0.90;;;36.50;43.10;;;;;;10053994;28;20025;-63
2022/07/27 14:45:05;;;;;;;2.03;1.60;;;37.00;43.10;;;;;;10043791;28;20029;-62
2022/07/27 14:49:56;;;;;;;1.38;1.17;;;37.50;43.30;;;;;;10051530;28;20284;-62
2022/07/27 14:54:47;;;;;;;1.95;1.65;;;37.90;41.90;;;;;;10052576;28;20104;-61
2022/07/27 14:59:37;;;;;;;1.92;1.23;;;37.20;42.00;;;;;;10055039;28;20103;-65
2022/07/27 15:04:28;;;;;;;4.43;1.27;;;36.90;41.80;;;;;;10044702;28;20096;-60
2022/07/27 15:09:19;;;;;;;3.45;1.38;;;36.90;41.40;;;;;;10048116;28;20147;-60
2022/07/27 15:14:09;;;;;;;1.63;1.00;;;36.70;41.10;;;;;;10047608;28;20084;-61
2022/07/27 15:19:00;;;;;;;1.88;1.30;;;36.70;41.10;;;;;;10049716;28;20256;-60
2022/07/27 15:23:51;;;;;;;1.52;1.00;;;36.80;41.20;;;;;;10053326;28;20084;-58
2022/07/27 15:28:42;;;;;;;3.63;1.30;;;36.20;40.70;;;;;;10056461;28;20450;-57
2022/07/27 15:33:33;;;;;;;3.80;2.05;;;36.10;40.60;;;;;;10056566;28;20451;-64
2022/07/27 15:38:23;;;;;;;2.47;1.13;;;35.50;40.80;;;;;;10052299;28;20099;-55
2022/07/27 15:43:16;;;;;;;1.98;1.27;;;35.70;40.80;;;;;;10057269;28;20033;-54
2022/07/27 15:48:09;;;;;;;1.65;1.10;;;36.10;40.60;;;;;;10055214;28;20568;-58
2022/07/27 15:53:00;;;;;;;1.75;1.40;;;36.40;40.40;;;;;;10052566;28;20025;-60
2022/07/27 15:57:51;;;;;;;;;;;35.90;40.30;;;;;;10057098;28;20021;-59
2022/07/27 16:02:41;;;;;;;1.77;1.10;;;35.50;40.30;;;;;;10050537;28;19916;-58
2022/07/27 16:07:32;;;;;;;1.75;1.38;;;36.10;40.10;;;;;;10051109;28;20057;-60
2022/07/27 16:12:22;;;;;;;1.23;1.10;;;36.30;39.70;;;;;;10060105;28;20113;-59
2022/07/27 16:17:14;;;;;;;1.00;0.90;;;37.10;39.30;;;;;;10058527;28;20370;-59
2022/07/27 16:22:05;;;;;;;1.75;1.30;;;37.90;38.60;;;;;;10055905;28;20026;-58
2022/07/27 16:26:55;;;;;;;2.08;1.13;;;38.90;37.90;;;;;;10052378;28;20042;-60
2022/07/27 16:31:46;;;;;;;1.83;1.13;;;38.80;37.80;;;;;;10057517;28;20521;-58
2022/07/27 16:36:37;;;;;;;;;;;39.10;37.60;;;;;;10060621;28;20049;-58
2022/07/27 16:41:27;;;;;;;1.83;1.23;;;39.90;37.00;;;;;;10054700;28;19915;-59
2022/07/27 16:46:18;;;;;;;2.88;1.10;;;39.40;37.30;;;;;;10056570;28;20109;-60
2022/07/27 16:51:10;;;;;;;1.30;1.08;;;39.30;37.00;;;;;;10053555;28;20075;-60
2022/07/27 16:56:01;;;;;;;5.75;1.10;;;39.70;36.70;;;;;;10056106;28;20032;-60
2022/07/27 17:00:52;;;;;;;;;;;40.20;36.00;;;;;;10055096;28;20049;-60
2022/07/27 17:05:43;;;;;;;2.00;0.93;;;39.90;36.10;;;;;;10051011;28;19972;-60
2022/07/27 17:10:34;;;;;;;1.77;1.13;;;39.80;35.90;;;;;;10053918;28;20021;-60
2022/07/27 17:15:24;;;;;;;3.20;1.20;;;39.10;36.60;;;;;;10055895;28;20053;-61
2022/07/27 17:20:15;;;;;;;1.53;1.43;;;39.00;36.00;;;;;;10046552;28;20021;-61
2022/07/27 17:25:06;;;;;;;2.63;1.70;;;38.10;36.00;;;;;;10055785;28;20046;-62
2022/07/27 17:29:57;;;;;;;2.17;1.30;;;38.50;35.80;;;;;;10044234;28;20108;-60
2022/07/27 17:34:48;;;;;;;2.37;1.70;;;38.80;35.70;;;;;;10055026;28;20539;-60
2022/07/27 17:39:38;;;;;;;3.67;1.88;;;35.60;37.60;;;;;;10053015;28;20120;-60
2022/07/27 17:44:29;;;;;;;2.53;1.20;;;34.90;38.40;;;;;;10051806;28;20289;-60
2022/07/27 17:49:20;;;;;;;2.25;1.10;;;36.30;36.80;;;;;;10046127;28;20030;-59
2022/07/27 17:54:10;;;;;;;1.92;1.13;;;33.70;38.70;;;;;;10050843;28;20068;-59
2022/07/27 17:59:01;;;;;;;1.70;1.05;;;32.00;40.40;;;;;;10050111;28;20103;-59
2022/07/27 18:03:51;;;;;;;2.13;1.40;;;31.10;41.50;;;;;;10046938;28;21319;-58
2022/07/27 18:08:43;;;;;;;1.73;1.30;;;30.10;42.60;;;;;;10054700;28;20061;-59
2022/07/27 18:13:34;;;;;;;3.17;1.30;;;29.60;43.40;;;;;;10055048;28;20628;-57
2022/07/27 18:18:26;;;;;;;3.10;1.55;;;29.10;44.20;;;;;;10053957;28;20185;-63
2022/07/27 18:23:18;;;;;;;2.42;1.40;;;28.70;44.70;;;;;;10047940;28;20034;-65
2022/07/27 18:28:09;;;;;;;2.33;1.30;;;28.60;44.90;;;;;;10054160;28;20048;-65
2022/07/27 18:33:00;;;;;;;1.50;1.27;;;28.60;45.00;;;;;;10048326;28;20484;-65
2022/07/27 18:37:51;;;;;;;1.83;1.30;;;28.50;45.40;;;;;;10048674;28;20153;-66
2022/07/27 18:42:41;;;;;;;3.28;1.30;;;28.20;45.70;;;;;;10050767;28;20021;-70
2022/07/27 18:47:32;;;;;;;2.90;1.65;;;28.10;46.10;;;;;;10054321;28;20116;-63
2022/07/27 18:52:23;;;;;;;2.28;1.40;;;27.90;46.50;;;;;;10055343;28;20459;-66
2022/07/27 18:57:14;;;;;;;3.10;1.30;;;27.90;46.40;;;;;;10052461;28;20029;-66
2022/07/27 19:02:04;;;;;;;2.75;1.25;;;28.00;46.50;;;;;;10048680;28;20389;-66
2022/07/27 19:06:55;;;;;;;1.70;1.45;;;27.70;46.90;;;;;;10049618;28;20064;-65
2022/07/27 19:11:46;;;;;;;3.03;1.42;;;27.60;47.10;;;;;;10051579;28;20506;-65
2022/07/27 19:16:37;;;;;;;2.85;2.17;;;27.50;47.30;;;;;;10045920;28;20041;-64
2022/07/27 19:21:27;;;;;;;6.35;2.20;;;27.40;47.50;;;;;;10052290;28;20108;-66
2022/07/27 19:26:18;;;;;;;3.50;1.70;;;27.20;47.70;;;;;;10046781;28;20100;-63
2022/07/27 19:31:10;;;;;;;3.63;1.10;;;27.20;47.90;;;;;;10048236;28;20048;-68
2022/07/27 19:36:01;;;;;;;2.88;1.50;;;27.20;47.80;;;;;;10049909;28;20572;-71
2022/07/27 19:40:55;;;;;;;4.43;1.58;;;27.00;48.10;;;;;;10051027;28;20035;-68
2022/07/27 19:45:47;;;;;;;2.87;1.40;;;27.00;48.00;;;;;;10051523;28;20044;-66
2022/07/27 19:50:38;;;;;;;2.90;1.23;;;26.80;48.40;;;;;;10048312;28;20034;-66
2022/07/27 19:55:29;;;;;;;3.08;2.03;;;26.60;48.80;;;;;;10044984;28;20295;-66
2022/07/27 20:00:20;;;;;;;3.92;1.50;;;26.60;48.70;;;;;;10046740;28;20395;-66
2022/07/27 20:05:10;;;;;;;4.43;1.48;;;26.30;49.20;;;;;;10050418;28;20030;-65
2022/07/27 20:10:01;;;;;;;3.28;1.20;;;26.00;49.60;;;;;;10048320;28;20022;-73
2022/07/27 20:14:52;;;;;;;2.58;1.63;;;26.00;49.70;;;;;;10046510;28;20041;-74
2022/07/27 20:19:43;;;;;;;4.85;1.55;;;26.10;49.50;;;;;;10050814;28;20412;-66
2022/07/27 20:24:33;;;;;;;4.90;1.48;;;26.10;49.40;;;;;;10052042;28;20033;-61
2022/07/27 20:29:28;;;;;;;2.90;1.90;;;26.10;49.40;;;;;;10058514;28;20038;-64
2022/07/27 20:34:19;;;;;;;2.78;1.20;;;26.00;49.60;;;;;;10047801;28;20030;-65
2022/07/27 20:39:10;;;;;;;1.48;0.85;;;25.80;49.80;;;;;;10062031;28;20064;-63
2022/07/27 20:44:01;;;;;;;1.70;1.05;;;25.60;50.30;;;;;;10054264;28;20049;-63
2022/07/27 20:48:51;;;;;;;5.80;1.45;;;25.80;50.00;;;;;;10052261;28;20073;-60
2022/07/27 20:53:42;;;;;;;2.40;1.05;;;25.90;49.90;;;;;;10047657;28;20018;-65
2022/07/27 20:58:33;;;;;;;2.95;1.40;;;25.70;50.10;;;;;;10056338;28;20029;-63
2022/07/27 21:03:24;;;;;;;2.20;1.45;;;25.40;50.50;;;;;;10054755;28;20511;-64
2022/07/27 21:08:14;;;;;;;3.33;1.00;;;25.30;50.80;;;;;;10057173;28;20041;-64
2022/07/27 21:13:05;;;;;;;1.23;0.80;;;25.30;50.70;;;;;;10056846;28;20118;-64
2022/07/27 21:17:56;;;;;;;2.15;1.15;;;25.10;50.80;;;;;;10052627;28;20061;-64
2022/07/27 21:24:13;;;;;;;3.53;1.30;;;25.00;50.80;;;;;;10053853;28;20099;-65
2022/07/27 21:27:57;;;;;;;8.15;1.70;;;25.10;50.80;;;;;;10049888;28;20037;-63
2022/07/27 21:32:48;;;;;;;2.40;0.98;;;25.10;50.90;;;;;;10045011;28;20172;-63
2022/07/27 21:37:38;;;;;;;1.83;1.10;;;24.90;51.20;;;;;;10044865;28;20196;-64
2022/07/27 21:42:30;;;;;;;4.22;1.20;;;24.70;51.40;;;;;;10050055;28;20021;-64
2022/07/27 21:47:21;;;;;;;3.28;1.00;;;24.50;51.90;;;;;;10051194;28;20034;-64
2022/07/27 21:52:11;;;;;;;1.23;0.90;;;24.60;51.70;;;;;;10051590;28;20175;-63
2022/07/27 21:57:02;;;;;;;3.30;1.30;;;24.70;51.70;;;;;;10048503;28;20037;-64
2022/07/27 22:01:53;;;;;;;2.38;0.82;;;24.60;51.50;;;;;;10042571;28;20543;-63
2022/07/27 22:06:43;;;;;;;4.35;1.50;;;24.50;51.90;;;;;;10048605;28;20037;-63
2022/07/27 22:11:34;;;;;;;4.50;1.00;;;24.50;51.80;;;;;;10053662;28;20051;-64
2022/07/27 22:16:25;;;;;;;1.17;0.80;;;24.20;52.20;;;;;;10052136;28;20033;-63
2022/07/27 22:21:15;;;;;;;3.97;1.58;;;24.00;52.50;;;;;;10054009;28;20022;-63
2022/07/27 22:26:06;;;;;;;5.50;1.30;;;24.10;52.60;;;;;;10050467;28;20037;-63
2022/07/27 22:30:57;;;;;;;4.10;1.00;;;24.20;52.40;;;;;;10052399;28;20036;-63
2022/07/27 22:35:47;;;;;;;1.58;1.02;;;24.10;53.30;;;;;;10052538;28;20057;-63
2022/07/27 22:40:38;;;;;;;3.03;1.05;;;24.10;52.60;;;;;;10053384;28;20092;-63
2022/07/27 22:45:28;;;;;;;2.17;1.02;;;24.10;52.70;;;;;;10051648;28;20100;-63
2022/07/27 22:50:20;;;;;;;2.60;1.17;;;24.10;52.60;;;;;;10053638;28;20025;-63
2022/07/27 22:55:11;;;;;;;2.45;1.00;;;24.00;52.80;;;;;;10048234;28;20025;-63
2022/07/27 23:00:04;;;;;;;5.28;1.40;;;23.90;52.80;;;;;;10046972;28;20025;-63
2022/07/27 23:04:55;;;;;;;5.05;2.65;;;23.80;53.10;;;;;;10052517;28;20443;-63
2022/07/27 23:09:46;;;;;;;1.83;0.90;;;23.80;53.20;;;;;;10053317;28;20539;-64
2022/07/27 23:14:36;;;;;;;1.95;1.10;;;23.90;52.90;;;;;;10051814;28;20245;-64
2022/07/27 23:19:27;;;;;;;4.40;1.10;;;24.00;53.00;;;;;;10049553;28;20022;-64
2022/07/27 23:24:17;;;;;;;1.77;0.98;;;24.00;53.00;;;;;;10049133;28;20033;-63
2022/07/27 23:29:08;;;;;;;4.03;1.00;;;24.00;53.10;;;;;;10044829;28;20033;-64
2022/07/27 23:33:59;;;;;;;1.85;1.13;;;24.00;53.20;;;;;;10052023;28;20029;-63
2022/07/27 23:38:49;;;;;;;1.70;1.13;;;23.70;53.60;;;;;;10052308;28;20053;-62
2022/07/27 23:43:40;;;;;;;1.27;0.90;;;23.70;53.60;;;;;;10055495;28;20029;-63
2022/07/27 23:48:31;;;;;;;1.42;1.00;;;23.60;53.50;;;;;;10058737;28;20030;-62
2022/07/27 23:53:22;;;;;;;3.38;0.80;;;23.60;53.80;;;;;;10057539;28;20056;-63
2022/07/27 23:58:13;;;;;;;3.70;0.82;;;23.50;53.90;;;;;;10058634;28;20025;-62
